createdAt,value
2024-02-15T00:00:23.858Z,55.73
2024-02-15T00:02:51.277Z,56.61
2024-02-15T00:05:18.626Z,56.54
2024-02-15T00:07:45.917Z,56.21
2024-02-15T00:10:13.228Z,56.43
2024-02-15T00:12:41.010Z,56.90
2024-02-15T00:15:08.522Z,56.04
2024-02-15T00:17:37.098Z,56.72
2024-02-15T00:20:10.868Z,56.48
2024-02-15T00:22:38.401Z,56.57
2024-02-15T00:25:07.058Z,56.16
2024-02-15T00:27:35.992Z,57.22
2024-02-15T00:30:04.074Z,56.91
2024-02-15T00:32:35.050Z,57.42
2024-02-15T00:35:02.889Z,57.57
2024-02-15T00:37:31.329Z,57.07
2024-02-15T00:39:58.730Z,57.63
2024-02-15T00:42:27.077Z,56.91
2024-02-15T00:44:54.427Z,57.49
2024-02-15T00:47:22.299Z,56.90
2024-02-15T00:49:51.441Z,57.38
2024-02-15T00:52:20.052Z,57.26
2024-02-15T00:54:47.573Z,56.96
2024-02-15T00:57:14.926Z,57.52
2024-02-15T00:59:42.358Z,57.87
2024-02-15T01:02:09.622Z,57.95
2024-02-15T01:04:36.998Z,57.85
2024-02-15T01:07:04.507Z,57.96
2024-02-15T01:09:31.969Z,57.67
2024-02-15T01:11:59.814Z,57.24
2024-02-15T01:14:31.250Z,57.46
2024-02-15T01:16:58.831Z,57.97
2024-02-15T01:19:26.173Z,57.89
2024-02-15T01:21:54.807Z,58.09
2024-02-15T01:24:22.249Z,58.20
2024-02-15T01:26:50.713Z,58.66
2024-02-15T01:29:18.028Z,58.29
2024-02-15T01:31:45.841Z,58.04
2024-02-15T01:34:13.244Z,58.23
2024-02-15T01:36:40.549Z,58.71
2024-02-15T01:39:08.811Z,59.25
2024-02-15T01:41:36.342Z,59.54
2024-02-15T01:44:04.069Z,59.17
2024-02-15T01:46:31.510Z,59.45
2024-02-15T01:48:58.999Z,59.79
2024-02-15T01:51:28.048Z,58.85
2024-02-15T01:53:56.387Z,60.19
2024-02-15T01:56:24.936Z,60.66
2024-02-15T01:58:52.726Z,60.15
2024-02-15T02:01:22.342Z,60.66
2024-02-15T02:03:49.731Z,59.52
2024-02-15T02:06:17.341Z,59.78
2024-02-15T02:08:44.740Z,59.89
2024-02-15T02:11:12.288Z,59.26
2024-02-15T02:13:39.556Z,59.91
2024-02-15T02:16:25.162Z,60.48
2024-02-15T02:18:52.624Z,60.66
2024-02-15T02:21:20.002Z,59.79
2024-02-15T02:23:51.148Z,60.91
2024-02-15T02:26:18.419Z,60.91
2024-02-15T02:28:45.845Z,61.42
2024-02-15T02:31:13.111Z,61.18
2024-02-15T02:33:40.656Z,61.55
2024-02-15T02:36:13.371Z,60.86
2024-02-15T02:38:41.361Z,61.39
2024-02-15T02:41:08.645Z,60.97
2024-02-15T02:43:36.177Z,60.85
2024-02-15T02:46:06.017Z,61.00
2024-02-15T02:48:33.611Z,60.17
2024-02-15T02:51:01.047Z,60.69
2024-02-15T02:53:28.390Z,61.13
2024-02-15T02:55:57.381Z,61.16
2024-02-15T02:58:24.964Z,60.79
2024-02-15T03:00:53.136Z,61.31
2024-02-15T03:03:20.460Z,60.82
2024-02-15T03:05:47.876Z,61.54
2024-02-15T03:08:15.621Z,61.38
2024-02-15T03:10:44.110Z,60.72
2024-02-15T03:13:11.488Z,60.69
2024-02-15T03:15:38.970Z,60.87
2024-02-15T03:18:08.512Z,60.49
2024-02-15T03:20:38.341Z,60.77
2024-02-15T03:23:05.710Z,60.76
2024-02-15T03:25:35.844Z,61.38
2024-02-15T03:28:04.409Z,61.54
2024-02-15T03:30:32.771Z,61.83
2024-02-15T03:33:00.357Z,61.62
2024-02-15T03:35:30.135Z,61.82
2024-02-15T03:37:57.715Z,61.67
2024-02-15T03:40:27.988Z,61.42
2024-02-15T03:42:55.532Z,62.02
2024-02-15T03:45:27.220Z,61.65
2024-02-15T03:47:55.981Z,62.09
2024-02-15T03:50:24.673Z,62.67
2024-02-15T03:52:52.412Z,62.85
2024-02-15T03:55:20.031Z,62.29
2024-02-15T03:57:48.024Z,62.85
2024-02-15T04:00:22.272Z,62.60
2024-02-15T04:02:51.107Z,63.04
2024-02-15T04:05:20.315Z,62.61
2024-02-15T04:07:48.069Z,62.11
2024-02-15T04:10:15.519Z,61.57
2024-02-15T04:12:54.929Z,62.29
2024-02-15T04:15:22.474Z,62.39
2024-02-15T04:17:54.525Z,62.30
2024-02-15T04:20:22.618Z,61.96
2024-02-15T04:22:51.491Z,62.26
2024-02-15T04:25:21.378Z,62.42
2024-02-15T04:27:49.125Z,63.00
2024-02-15T04:30:19.564Z,62.64
2024-02-15T04:32:49.377Z,62.63
2024-02-15T04:35:16.857Z,62.62
2024-02-15T04:37:44.205Z,62.75
2024-02-15T04:40:12.717Z,63.34
2024-02-15T04:42:42.285Z,63.10
2024-02-15T04:45:11.826Z,63.87
2024-02-15T04:47:53.918Z,63.65
2024-02-15T04:50:22.252Z,63.92
2024-02-15T04:52:51.228Z,63.84
2024-02-15T04:55:19.463Z,63.87
2024-02-15T04:57:50.478Z,64.10
2024-02-15T05:00:22.393Z,63.62
2024-02-15T05:02:51.033Z,64.20
2024-02-15T05:05:19.204Z,63.49
2024-02-15T05:07:46.514Z,63.58
2024-02-15T05:10:14.191Z,63.98
2024-02-15T05:12:41.884Z,64.34
2024-02-15T05:15:13.770Z,64.26
2024-02-15T05:17:45.161Z,64.81
2024-02-15T05:20:14.955Z,64.99
2024-02-15T05:22:50.958Z,65.28
2024-02-15T05:25:27.730Z,64.62
2024-02-15T05:27:56.444Z,65.71
2024-02-15T05:30:24.953Z,64.58
2024-02-15T05:32:54.867Z,65.33
2024-02-15T05:35:22.993Z,65.80
2024-02-15T05:37:50.383Z,65.68
2024-02-15T05:40:19.022Z,66.10
2024-02-15T05:42:47.366Z,66.12
2024-02-15T05:45:26.954Z,65.71
2024-02-15T05:47:54.910Z,65.98
2024-02-15T05:50:22.855Z,65.80
2024-02-15T05:52:50.412Z,65.75
2024-02-15T05:55:18.558Z,66.11
2024-02-15T05:57:46.422Z,65.97
2024-02-15T06:00:21.742Z,66.01
2024-02-15T06:02:51.654Z,66.50
2024-02-15T06:05:19.979Z,66.09
2024-02-15T06:07:48.280Z,65.51
2024-02-15T06:10:16.531Z,65.76
2024-02-15T06:12:44.549Z,65.42
2024-02-15T06:15:17.188Z,65.09
2024-02-15T06:17:48.749Z,65.58
2024-02-15T06:20:19.531Z,65.42
2024-02-15T06:23:07.480Z,65.17
2024-02-15T06:25:36.210Z,65.03
2024-02-15T06:28:14.313Z,65.05
2024-02-15T06:31:00.385Z,65.48
2024-02-15T06:33:46.137Z,65.03
2024-02-15T06:36:32.195Z,63.66
2024-02-15T06:39:18.022Z,63.77
2024-02-15T06:41:45.371Z,64.19
2024-02-15T06:44:13.273Z,63.54
2024-02-15T06:46:40.679Z,63.51
2024-02-15T06:49:08.204Z,63.49
2024-02-15T06:51:35.652Z,62.73
2024-02-15T06:54:04.432Z,63.82
2024-02-15T06:56:32.084Z,63.54
2024-02-15T06:58:59.984Z,64.33
2024-02-15T07:01:27.409Z,64.92
2024-02-15T07:03:57.657Z,64.87
2024-02-15T07:06:28.818Z,64.63
2024-02-15T07:08:58.085Z,65.76
2024-02-15T07:11:25.479Z,65.32
2024-02-15T07:13:56.165Z,65.59
2024-02-15T07:16:23.786Z,65.14
2024-02-15T07:18:51.621Z,64.61
2024-02-15T07:21:22.457Z,64.35
2024-02-15T07:23:49.874Z,65.54
2024-02-15T07:26:17.943Z,65.49
2024-02-15T07:28:47.413Z,66.26
2024-02-15T07:31:15.896Z,66.02
2024-02-15T07:33:44.630Z,65.69
2024-02-15T07:36:12.212Z,65.72
2024-02-15T07:38:39.533Z,64.74
2024-02-15T07:41:06.855Z,64.83
2024-02-15T07:43:34.713Z,65.10
2024-02-15T07:46:02.130Z,63.59
2024-02-15T07:48:29.795Z,63.44
2024-02-15T07:50:59.638Z,63.25
2024-02-15T07:53:27.044Z,63.49
2024-02-15T07:55:54.302Z,63.43
2024-02-15T07:58:22.265Z,62.31
2024-02-15T08:00:49.633Z,62.24
2024-02-15T08:03:19.447Z,61.77
2024-02-15T08:05:46.906Z,61.94
2024-02-15T08:08:14.259Z,62.61
2024-02-15T08:10:43.261Z,62.57
2024-02-15T08:13:10.574Z,62.54
2024-02-15T08:15:37.827Z,62.73
2024-02-15T08:18:07.296Z,61.91
2024-02-15T08:20:35.887Z,61.77
2024-02-15T08:23:03.508Z,61.53
2024-02-15T08:25:32.593Z,61.31
2024-02-15T08:27:59.924Z,60.77
2024-02-15T08:30:29.017Z,60.68
2024-02-15T08:32:56.667Z,60.73
2024-02-15T08:35:24.342Z,61.34
2024-02-15T08:37:54.077Z,61.22
2024-02-15T08:40:26.222Z,60.96
2024-02-15T08:42:53.862Z,60.71
2024-02-15T08:45:21.740Z,59.45
2024-02-15T08:47:51.309Z,59.44
2024-02-15T08:50:19.086Z,59.82
2024-02-15T08:52:48.153Z,59.67
2024-02-15T08:55:16.043Z,60.30
2024-02-15T08:57:45.406Z,58.89
2024-02-15T09:00:17.616Z,59.34
2024-02-15T09:02:45.991Z,59.01
2024-02-15T09:05:16.568Z,58.41
2024-02-15T09:07:44.778Z,58.42
2024-02-15T09:10:12.715Z,58.50
2024-02-15T09:12:41.254Z,59.05
2024-02-15T09:15:09.479Z,58.66
2024-02-15T09:17:43.079Z,57.62
2024-02-15T09:20:15.941Z,58.09
2024-02-15T09:22:44.241Z,58.38
2024-02-15T09:25:11.840Z,58.32
2024-02-15T09:27:39.158Z,57.45
2024-02-15T09:30:10.924Z,57.83
2024-02-15T09:32:38.550Z,58.07
2024-02-15T09:35:10.184Z,58.09
2024-02-15T09:37:41.043Z,57.72
2024-02-15T09:40:13.121Z,58.03
2024-02-15T09:42:41.688Z,57.85
2024-02-15T09:45:14.172Z,57.39
2024-02-15T09:47:42.341Z,57.72
2024-02-15T09:50:17.659Z,58.19
2024-02-15T09:52:45.873Z,57.10
2024-02-15T09:55:14.592Z,57.66
2024-02-15T09:57:43.455Z,57.33
2024-02-15T10:00:15.020Z,57.48
2024-02-15T10:02:46.049Z,57.51
2024-02-15T10:05:14.086Z,57.66
2024-02-15T10:07:45.873Z,58.12
2024-02-15T10:10:20.286Z,57.80
2024-02-15T10:12:57.685Z,57.72
2024-02-15T10:15:46.269Z,57.58
2024-02-15T10:18:14.421Z,57.57
2024-02-15T10:20:46.238Z,57.88
2024-02-15T10:23:19.956Z,57.00
2024-02-15T10:25:48.552Z,56.89
2024-02-15T10:28:21.221Z,56.28
2024-02-15T10:30:50.098Z,56.51
2024-02-15T10:33:22.093Z,57.43
2024-02-15T10:35:49.535Z,57.32
2024-02-15T10:38:19.401Z,56.96
2024-02-15T10:40:48.080Z,57.29
2024-02-15T10:43:17.920Z,57.56
2024-02-15T10:45:46.203Z,56.58
2024-02-15T10:48:14.778Z,57.11
2024-02-15T10:50:43.577Z,56.69
2024-02-15T10:53:27.656Z,56.34
2024-02-15T10:56:01.217Z,56.67
2024-02-15T10:58:33.319Z,57.05
2024-02-15T11:01:00.808Z,57.09
2024-02-15T11:03:32.543Z,57.03
2024-02-15T11:06:02.284Z,56.68
2024-02-15T11:08:30.015Z,56.32
2024-02-15T11:11:00.333Z,56.80
2024-02-15T11:13:28.647Z,56.51
2024-02-15T11:15:55.862Z,56.00
2024-02-15T11:18:41.835Z,55.77
2024-02-15T11:21:09.252Z,55.95
2024-02-15T11:23:37.487Z,56.06
2024-02-15T11:26:06.329Z,55.98
2024-02-15T11:28:35.290Z,55.68
2024-02-15T11:31:04.396Z,55.95
2024-02-15T11:33:38.598Z,55.59
2024-02-15T11:36:11.165Z,55.38
2024-02-15T11:38:42.484Z,55.63
2024-02-15T11:41:11.868Z,55.05
2024-02-15T11:43:58.669Z,55.89
2024-02-15T11:46:26.944Z,55.30
2024-02-15T11:48:58.103Z,54.97
2024-02-15T11:51:26.787Z,55.43
2024-02-15T11:54:07.213Z,55.95
2024-02-15T11:56:53.191Z,55.69
2024-02-15T11:59:30.690Z,55.60
2024-02-15T12:02:16.668Z,55.72
2024-02-15T12:05:03.118Z,55.77
2024-02-15T12:07:49.283Z,55.88
2024-02-15T12:10:36.253Z,55.98
2024-02-15T12:13:22.524Z,55.38
2024-02-15T12:16:18.023Z,56.15
2024-02-15T12:18:47.536Z,55.89
2024-02-15T12:21:18.481Z,56.76
2024-02-15T12:23:47.001Z,56.68
2024-02-15T12:26:15.924Z,56.38
2024-02-15T12:28:46.478Z,56.76
2024-02-15T12:31:15.865Z,56.34
2024-02-15T12:33:43.482Z,56.30
2024-02-15T12:36:11.198Z,56.23
2024-02-15T12:38:39.582Z,56.73
2024-02-15T12:41:22.370Z,56.50
2024-02-15T12:43:55.866Z,56.61
2024-02-15T12:46:23.582Z,56.80
2024-02-15T12:48:51.237Z,56.33
2024-02-15T12:51:19.402Z,56.01
2024-02-15T12:53:47.021Z,56.18
2024-02-15T12:56:21.065Z,56.61
2024-02-15T12:58:48.366Z,56.54
2024-02-15T13:01:15.631Z,56.74
2024-02-15T13:03:43.064Z,56.55
2024-02-15T13:06:10.401Z,56.73
2024-02-15T13:08:37.783Z,56.18
2024-02-15T13:11:05.305Z,56.57
2024-02-15T13:13:32.753Z,57.08
2024-02-15T13:16:00.276Z,56.55
2024-02-15T13:18:29.818Z,56.70
2024-02-15T13:20:59.119Z,56.85
2024-02-15T13:23:27.282Z,56.71
2024-02-15T13:25:57.943Z,57.47
2024-02-15T13:28:26.216Z,57.27
2024-02-15T13:30:55.874Z,56.57
2024-02-15T13:33:23.801Z,56.74
2024-02-15T13:35:51.518Z,57.46
2024-02-15T13:38:25.069Z,56.52
2024-02-15T13:40:55.699Z,57.45
2024-02-15T13:43:22.988Z,56.99
2024-02-15T13:45:50.405Z,57.26
2024-02-15T13:48:18.245Z,56.87
2024-02-15T13:50:46.394Z,56.62
2024-02-15T13:53:15.391Z,56.88
2024-02-15T13:55:42.936Z,56.53
2024-02-15T13:58:14.101Z,57.15
2024-02-15T14:00:43.909Z,57.06
2024-02-15T14:03:12.464Z,57.14
2024-02-15T14:05:42.778Z,57.32
2024-02-15T14:08:13.415Z,56.74
2024-02-15T14:10:40.744Z,57.05
2024-02-15T14:13:12.817Z,56.73
2024-02-15T14:15:41.052Z,56.79
2024-02-15T14:18:14.829Z,56.82
2024-02-15T14:20:45.678Z,56.74
2024-02-15T14:23:16.434Z,57.35
2024-02-15T14:25:44.214Z,56.41
2024-02-15T14:28:11.720Z,56.84
2024-02-15T14:30:59.038Z,56.70
2024-02-15T14:33:33.427Z,57.21
2024-02-15T14:36:02.572Z,57.61
2024-02-15T14:38:30.802Z,57.21
2024-02-15T14:41:01.028Z,57.24
2024-02-15T14:43:29.891Z,56.72
2024-02-15T14:45:58.416Z,56.85
2024-02-15T14:48:27.059Z,57.45
2024-02-15T14:50:55.104Z,57.34
2024-02-15T14:53:23.829Z,57.43
2024-02-15T14:55:53.040Z,57.36
2024-02-15T14:58:21.282Z,57.29
2024-02-15T15:00:49.253Z,57.38
2024-02-15T15:03:18.246Z,56.54
2024-02-15T15:06:04.995Z,57.30
2024-02-15T15:08:51.631Z,56.66
2024-02-15T15:11:38.190Z,57.18
2024-02-15T15:14:06.403Z,56.92
2024-02-15T15:16:35.438Z,56.77
2024-02-15T15:19:03.762Z,56.49
2024-02-15T15:21:31.387Z,56.70
2024-02-15T15:23:58.845Z,56.74
2024-02-15T15:26:26.373Z,56.98
2024-02-15T15:28:53.735Z,56.29
2024-02-15T15:31:21.682Z,56.97
2024-02-15T15:33:53.990Z,56.39
2024-02-15T15:36:23.379Z,56.81
2024-02-15T15:38:51.616Z,56.91
2024-02-15T15:41:19.842Z,56.19
2024-02-15T15:43:47.617Z,57.00
2024-02-15T15:46:16.084Z,56.25
2024-02-15T15:48:45.054Z,56.64
2024-02-15T15:51:13.845Z,56.61
2024-02-15T15:53:41.711Z,57.00
2024-02-15T15:56:09.277Z,57.03
2024-02-15T15:58:36.888Z,57.13
2024-02-15T16:01:05.644Z,57.40
2024-02-15T16:03:33.628Z,56.97
2024-02-15T16:06:01.319Z,56.99
2024-02-15T16:08:28.745Z,56.58
2024-02-15T16:10:58.168Z,56.99
2024-02-15T16:13:27.097Z,56.51
2024-02-15T16:15:56.239Z,57.61
2024-02-15T16:18:25.050Z,56.91
2024-02-15T16:20:55.115Z,56.76
2024-02-15T16:23:24.088Z,57.20
2024-02-15T16:25:54.659Z,57.40
2024-02-15T16:28:21.958Z,57.93
2024-02-15T16:30:49.908Z,57.57
2024-02-15T16:33:17.597Z,57.33
2024-02-15T16:35:47.183Z,58.07
2024-02-15T16:38:17.469Z,58.05
2024-02-15T16:40:44.817Z,58.09
2024-02-15T16:43:12.128Z,58.29
2024-02-15T16:45:40.809Z,58.67
2024-02-15T16:48:08.526Z,58.50
2024-02-15T16:50:36.723Z,58.43
2024-02-15T16:53:04.399Z,58.52
2024-02-15T16:55:33.489Z,57.95
2024-02-15T16:58:04.931Z,57.59
2024-02-15T17:00:33.709Z,58.48
2024-02-15T17:03:01.927Z,58.46
2024-02-15T17:05:29.849Z,59.08
2024-02-15T17:07:57.700Z,58.81
2024-02-15T17:10:28.650Z,58.20
2024-02-15T17:12:56.112Z,58.72
2024-02-15T17:15:27.969Z,58.22
2024-02-15T17:17:56.382Z,58.71
2024-02-15T17:20:26.994Z,58.94
2024-02-15T17:22:54.970Z,58.66
2024-02-15T17:25:26.653Z,59.22
2024-02-15T17:27:57.037Z,59.02
2024-02-15T17:30:25.560Z,58.36
2024-02-15T17:32:53.928Z,58.28
2024-02-15T17:35:22.720Z,58.51
2024-02-15T17:37:50.656Z,58.15
2024-02-15T17:40:38.987Z,58.27
2024-02-15T17:43:33.383Z,58.90
2024-02-15T17:46:05.967Z,59.02
2024-02-15T17:48:48.517Z,58.90
2024-02-15T17:51:18.995Z,59.24
2024-02-15T17:53:47.646Z,58.66
2024-02-15T17:56:17.895Z,59.74
2024-02-15T17:58:48.977Z,58.99
2024-02-15T18:01:16.935Z,59.21
2024-02-15T18:03:56.126Z,59.08
2024-02-15T18:06:26.514Z,59.39
2024-02-15T18:08:56.884Z,58.72
2024-02-15T18:11:45.835Z,59.05
2024-02-15T18:14:28.207Z,58.49
2024-02-15T18:16:55.524Z,58.78
2024-02-15T18:19:23.116Z,58.75
2024-02-15T18:21:59.903Z,58.82
2024-02-15T18:24:37.278Z,58.57
2024-02-15T18:27:05.034Z,59.19
2024-02-15T18:29:35.232Z,59.66
2024-02-15T18:32:12.033Z,59.58
2024-02-15T18:34:39.398Z,59.41
2024-02-15T18:37:08.360Z,59.57
2024-02-15T18:39:35.694Z,60.24
2024-02-15T18:42:12.167Z,60.17
2024-02-15T18:44:39.605Z,59.83
2024-02-15T18:47:06.861Z,60.26
2024-02-15T18:49:36.947Z,59.67
2024-02-15T18:52:08.390Z,60.43
2024-02-15T18:54:38.971Z,59.93
2024-02-15T18:57:06.517Z,60.36
2024-02-15T18:59:35.731Z,59.78
2024-02-15T19:02:36.421Z,60.06
2024-02-15T19:05:12.732Z,60.25
2024-02-15T19:07:48.499Z,60.16
2024-02-15T19:10:34.360Z,60.11
2024-02-15T19:13:05.071Z,59.88
2024-02-15T19:15:33.632Z,60.02
2024-02-15T19:18:05.262Z,59.62
2024-02-15T19:20:34.447Z,59.76
2024-02-15T19:23:01.791Z,59.23
2024-02-15T19:25:29.145Z,59.42
2024-02-15T19:27:59.465Z,59.99
2024-02-15T19:30:32.851Z,59.70
2024-02-15T19:33:00.347Z,60.25
2024-02-15T19:35:28.022Z,59.67
2024-02-15T19:38:10.692Z,59.80
2024-02-15T19:40:43.288Z,60.33
2024-02-15T19:43:22.785Z,60.05
2024-02-15T19:45:57.034Z,60.37
2024-02-15T19:48:24.930Z,60.23
2024-02-15T19:50:52.330Z,60.02
2024-02-15T19:53:22.374Z,60.07
2024-02-15T19:55:50.904Z,59.99
2024-02-15T19:58:36.685Z,60.90
2024-02-15T20:01:04.127Z,60.48
2024-02-15T20:03:33.390Z,60.98
2024-02-15T20:06:01.143Z,60.66
2024-02-15T20:08:29.613Z,60.46
2024-02-15T20:10:57.514Z,61.37
2024-02-15T20:13:25.042Z,60.87
2024-02-15T20:15:54.534Z,60.93
2024-02-15T20:18:22.187Z,60.74
2024-02-15T20:20:50.231Z,60.31
2024-02-15T20:23:17.654Z,59.93
2024-02-15T20:25:47.853Z,60.37
2024-02-15T20:28:15.285Z,60.58
2024-02-15T20:30:43.723Z,60.19
2024-02-15T20:33:15.755Z,60.12
2024-02-15T20:35:43.486Z,60.88
2024-02-15T20:38:11.150Z,60.55
2024-02-15T20:40:38.747Z,60.37
2024-02-15T20:43:06.793Z,60.63
2024-02-15T20:45:34.091Z,59.76
2024-02-15T20:48:01.501Z,60.02
2024-02-15T20:50:30.686Z,60.42
2024-02-15T20:52:58.254Z,59.98
2024-02-15T20:55:25.603Z,60.46
2024-02-15T20:57:53.288Z,59.96
2024-02-15T21:00:20.644Z,60.01
2024-02-15T21:02:48.109Z,59.68
2024-02-15T21:05:15.582Z,60.78
2024-02-15T21:07:43.398Z,60.46
2024-02-15T21:10:13.782Z,59.96
2024-02-15T21:12:41.374Z,60.49
2024-02-15T21:15:10.873Z,60.03
2024-02-15T21:17:40.117Z,60.03
2024-02-15T21:20:13.325Z,60.44
2024-02-15T21:22:40.888Z,60.23
2024-02-15T21:25:08.206Z,60.40
2024-02-15T21:27:35.544Z,60.92
2024-02-15T21:30:06.034Z,60.52
2024-02-15T21:32:36.382Z,60.29
2024-02-15T21:35:04.341Z,60.91
2024-02-15T21:37:32.886Z,60.15
2024-02-15T21:40:00.283Z,60.07
2024-02-15T21:42:28.124Z,60.60
2024-02-15T21:44:56.361Z,60.47
2024-02-15T21:47:23.741Z,61.05
2024-02-15T21:49:51.483Z,60.83
2024-02-15T21:52:19.006Z,60.87
2024-02-15T21:54:46.492Z,60.93
2024-02-15T21:57:15.919Z,61.02
2024-02-15T21:59:43.193Z,61.14
2024-02-15T22:02:12.574Z,60.83
2024-02-15T22:04:40.048Z,61.43
2024-02-15T22:07:08.692Z,60.95
2024-02-15T22:09:39.067Z,60.62
2024-02-15T22:12:07.593Z,61.52
2024-02-15T22:14:35.067Z,61.05
2024-02-15T22:17:02.647Z,61.58
2024-02-15T22:19:30.055Z,61.17
2024-02-15T22:21:57.859Z,61.01
2024-02-15T22:24:25.258Z,61.33
2024-02-15T22:26:52.757Z,61.81
2024-02-15T22:29:19.967Z,60.95
2024-02-15T22:31:47.286Z,61.06
2024-02-15T22:34:15.890Z,61.79
2024-02-15T22:36:43.334Z,61.59
2024-02-15T22:39:11.719Z,61.12
2024-02-15T22:41:39.248Z,61.03
2024-02-15T22:44:06.526Z,61.24
2024-02-15T22:46:33.947Z,61.22
2024-02-15T22:49:01.487Z,61.64
2024-02-15T22:51:29.243Z,60.91
2024-02-15T22:53:56.581Z,60.87
2024-02-15T22:56:24.116Z,60.16
2024-02-15T22:58:51.365Z,60.65
2024-02-15T23:01:18.659Z,59.84
2024-02-15T23:03:46.134Z,60.13
2024-02-15T23:06:13.709Z,59.72
2024-02-15T23:08:41.241Z,60.02
2024-02-15T23:11:08.665Z,59.72
2024-02-15T23:13:37.397Z,60.11
2024-02-15T23:16:05.674Z,60.08
2024-02-15T23:18:33.082Z,60.24
2024-02-15T23:21:00.711Z,61.13
2024-02-15T23:23:28.119Z,60.46
2024-02-15T23:25:55.470Z,60.60
2024-02-15T23:28:22.703Z,60.56
2024-02-15T23:30:50.662Z,60.60
2024-02-15T23:33:21.025Z,60.54
2024-02-15T23:36:08.795Z,61.13
2024-02-15T23:38:55.064Z,61.56
2024-02-15T23:41:22.613Z,60.81
2024-02-15T23:43:50.475Z,60.89
2024-02-15T23:46:17.701Z,61.22
2024-02-15T23:48:45.373Z,61.02
2024-02-15T23:51:12.824Z,61.21
2024-02-15T23:53:41.484Z,61.05
2024-02-15T23:56:09.858Z,61.25
2024-02-15T23:58:37.383Z,61.80
